createdAt,value
2023-02-25T00:01:29.128Z,96242.88
2023-02-25T00:03:57.363Z,96253.63
2023-02-25T00:06:25.396Z,96259.81
2023-02-25T00:08:54.271Z,96249.53
2023-02-25T00:11:23.536Z,96251.19
2023-02-25T00:13:50.503Z,96257.72
2023-02-25T00:16:19.112Z,96250.50
2023-02-25T00:18:46.841Z,96260.44
2023-02-25T00:21:16.798Z,96262.78
2023-02-25T00:23:46.497Z,96261.50
2023-02-25T00:26:13.949Z,96267.13
2023-02-25T00:28:41.503Z,96271.31
2023-02-25T00:31:11.416Z,96265.94
2023-02-25T00:33:41.789Z,96266.88
2023-02-25T00:36:13.190Z,96269.44
2023-02-25T00:38:40.649Z,96264.53
2023-02-25T00:41:12.021Z,96269.56
2023-02-25T00:43:47.931Z,96258.56
2023-02-25T00:46:14.710Z,96261.28
2023-02-25T00:48:42.086Z,96263.97
2023-02-25T00:51:15.800Z,96272.00
2023-02-25T00:53:43.059Z,96267.69
2023-02-25T00:56:15.500Z,96272.13
2023-02-25T00:58:44.844Z,96260.91
2023-02-25T01:01:27.601Z,96272.81
2023-02-25T01:03:56.634Z,96270.38
2023-02-25T01:06:25.837Z,96261.72
2023-02-25T01:08:52.776Z,96273.63
2023-02-25T01:11:27.671Z,96269.34
2023-02-25T01:14:00.365Z,96274.38
2023-02-25T01:16:31.276Z,96273.63
2023-02-25T01:19:01.647Z,96275.38
2023-02-25T01:21:39.598Z,96266.03
2023-02-25T01:24:17.065Z,96262.78
2023-02-25T01:26:46.384Z,96261.47
2023-02-25T01:29:40.249Z,96265.19
2023-02-25T01:32:11.098Z,96273.84
2023-02-25T01:34:39.947Z,96273.16
2023-02-25T01:37:07.280Z,96287.53
2023-02-25T01:39:34.405Z,96287.53
2023-02-25T01:42:12.494Z,96293.50
2023-02-25T01:45:20.345Z,96286.13
2023-02-25T01:48:12.344Z,96286.34
2023-02-25T01:51:12.894Z,96285.53
2023-02-25T01:53:48.069Z,96277.00
2023-02-25T01:56:20.662Z,96286.34
2023-02-25T01:58:49.156Z,96295.00
2023-02-25T02:01:20.081Z,96291.63
2023-02-25T02:03:48.436Z,96285.31
2023-02-25T02:06:34.588Z,96295.59
2023-02-25T02:09:04.326Z,96291.50
2023-02-25T02:11:31.117Z,96299.56
2023-02-25T02:14:00.164Z,96286.78
2023-02-25T02:16:45.010Z,96300.00
2023-02-25T02:19:47.541Z,96294.59
2023-02-25T02:22:44.367Z,96288.97
2023-02-25T02:25:34.764Z,96299.25
2023-02-25T02:28:30.163Z,96299.25
2023-02-25T02:31:28.190Z,96301.81
2023-02-25T02:34:28.622Z,96299.03
2023-02-25T02:37:16.956Z,96300.88
2023-02-25T02:40:15.522Z,96294.13
2023-02-25T02:43:29.044Z,96306.03
2023-02-25T02:46:23.327Z,96305.22
2023-02-25T02:49:01.031Z,96304.63
2023-02-25T02:51:50.576Z,96308.84
2023-02-25T02:54:20.473Z,96312.00
2023-02-25T02:56:50.625Z,96306.97
2023-02-25T02:59:31.838Z,96315.63
2023-02-25T03:02:08.654Z,96316.44
2023-02-25T03:04:41.659Z,96321.44
2023-02-25T03:07:12.260Z,96314.69
2023-02-25T03:09:50.230Z,96321.44
2023-02-25T03:12:17.788Z,96313.75
2023-02-25T03:14:44.780Z,96312.81
2023-02-25T03:17:26.068Z,96314.44
2023-02-25T03:20:07.882Z,96318.88
2023-02-25T03:22:41.129Z,96324.84
2023-02-25T03:25:25.478Z,96317.94
2023-02-25T03:27:56.078Z,96320.63
2023-02-25T03:30:39.508Z,96325.78
2023-02-25T03:33:39.545Z,96327.41
2023-02-25T03:36:14.657Z,96326.38
2023-02-25T03:38:47.997Z,96332.94
2023-02-25T03:41:19.461Z,96334.06
2023-02-25T03:43:53.461Z,96335.84
2023-02-25T03:46:22.520Z,96337.59
2023-02-25T03:48:52.350Z,96335.94
2023-02-25T03:51:27.010Z,96338.97
2023-02-25T03:53:53.828Z,96346.81
2023-02-25T03:56:20.818Z,96340.84
2023-02-25T03:58:47.777Z,96341.03
2023-02-25T04:01:22.988Z,96348.03
2023-02-25T04:03:49.735Z,96356.78
2023-02-25T04:06:22.850Z,96357.94
2023-02-25T04:08:50.744Z,96363.09
2023-02-25T04:11:17.592Z,96350.13
2023-02-25T04:13:44.346Z,96359.59
2023-02-25T04:16:11.366Z,96359.38
2023-02-25T04:18:38.167Z,96364.50
2023-02-25T04:21:07.182Z,96361.81
2023-02-25T04:23:34.849Z,96361.94
2023-02-25T04:26:02.139Z,96359.47
2023-02-25T04:28:28.879Z,96375.84
2023-02-25T04:30:55.789Z,96374.31
2023-02-25T04:33:22.637Z,96387.97
2023-02-25T04:35:51.620Z,96383.66
2023-02-25T04:38:18.346Z,96392.06
2023-02-25T04:40:45.099Z,96380.25
2023-02-25T04:43:11.870Z,96383.94
2023-02-25T04:45:38.595Z,96378.09
2023-02-25T04:48:05.744Z,96380.78
2023-02-25T04:50:32.727Z,96384.28
2023-02-25T04:53:02.450Z,96393.41
2023-02-25T04:55:30.254Z,96381.50
2023-02-25T04:57:57.430Z,96386.75
2023-02-25T05:00:26.879Z,96390.25
2023-02-25T05:02:53.764Z,96385.13
2023-02-25T05:05:20.523Z,96381.38
2023-02-25T05:07:47.352Z,96376.88
2023-02-25T05:10:15.126Z,96374.59
2023-02-25T05:12:42.295Z,96374.84
2023-02-25T05:15:10.585Z,96379.97
2023-02-25T05:17:37.428Z,96382.09
2023-02-25T05:20:11.916Z,96379.75
2023-02-25T05:22:39.766Z,96390.03
2023-02-25T05:25:08.417Z,96379.03
2023-02-25T05:27:35.469Z,96381.84
2023-02-25T05:30:02.884Z,96392.09
2023-02-25T05:32:31.855Z,96399.81
2023-02-25T05:34:58.888Z,96398.06
2023-02-25T05:37:25.907Z,96412.44
2023-02-25T05:39:52.630Z,96408.34
2023-02-25T05:42:19.573Z,96419.44
2023-02-25T05:44:46.315Z,96404.03
2023-02-25T05:47:14.980Z,96404.03
2023-02-25T05:49:42.697Z,96402.50
2023-02-25T05:52:11.445Z,96404.97
2023-02-25T05:54:38.192Z,96399.31
2023-02-25T05:57:05.268Z,96396.03
2023-02-25T05:59:32.164Z,96388.19
2023-02-25T06:01:59.206Z,96415.53
2023-02-25T06:04:25.980Z,96410.09
2023-02-25T06:06:52.700Z,96412.66
2023-02-25T06:09:21.206Z,96415.34
2023-02-25T06:11:49.014Z,96406.72
2023-02-25T06:14:16.438Z,96407.53
2023-02-25T06:16:44.407Z,96400.75
2023-02-25T06:19:12.259Z,96399.72
2023-02-25T06:21:39.613Z,96390.25
2023-02-25T06:24:07.065Z,96391.78
2023-02-25T06:26:35.263Z,96400.31
2023-02-25T06:29:02.029Z,96394.94
2023-02-25T06:31:28.775Z,96411.81
2023-02-25T06:33:55.499Z,96414.38
2023-02-25T06:36:22.605Z,96437.41
2023-02-25T06:38:49.910Z,96457.84
2023-02-25T06:41:20.959Z,96458.06
2023-02-25T06:43:52.269Z,96475.94
2023-02-25T06:46:26.069Z,96463.91
2023-02-25T06:48:53.646Z,96475.63
2023-02-25T06:51:20.404Z,96473.03
2023-02-25T06:53:47.641Z,96464.41
2023-02-25T06:56:15.991Z,96477.25
2023-02-25T06:58:43.207Z,96473.88
2023-02-25T07:01:14.125Z,96483.09
2023-02-25T07:03:43.357Z,96475.31
2023-02-25T07:06:11.330Z,96482.81
2023-02-25T07:08:38.073Z,96485.97
2023-02-25T07:11:18.330Z,96479.09
2023-02-25T07:13:48.824Z,96471.97
2023-02-25T07:16:16.880Z,96480.19
2023-02-25T07:18:44.797Z,96472.38
2023-02-25T07:21:12.361Z,96478.34
2023-02-25T07:23:40.010Z,96467.81
2023-02-25T07:26:10.426Z,96478.81
2023-02-25T07:28:38.357Z,96484.06
2023-02-25T07:31:16.005Z,96472.16
2023-02-25T07:33:43.330Z,96478.72
2023-02-25T07:36:11.859Z,96478.63
2023-02-25T07:38:39.158Z,96484.38
2023-02-25T07:41:08.976Z,96473.16
2023-02-25T07:43:35.978Z,96466.97
2023-02-25T07:46:02.948Z,96468.28
2023-02-25T07:48:30.333Z,96480.94
2023-02-25T07:51:04.807Z,96480.47
2023-02-25T07:53:31.523Z,96479.94
2023-02-25T07:55:58.262Z,96486.78
2023-02-25T07:58:25.096Z,96484.19
2023-02-25T08:00:52.003Z,96479.66
2023-02-25T08:03:18.718Z,96482.00
2023-02-25T08:05:45.440Z,96481.69
2023-02-25T08:08:13.057Z,96481.69
2023-02-25T08:10:39.828Z,96481.56
2023-02-25T08:13:06.531Z,96485.66
2023-02-25T08:15:33.240Z,96481.72
2023-02-25T08:18:00.022Z,96492.09
2023-02-25T08:20:26.796Z,96483.78
2023-02-25T08:22:56.797Z,96483.09
2023-02-25T08:25:23.515Z,96485.53
2023-02-25T08:27:50.253Z,96485.19
2023-02-25T08:30:17.510Z,96482.91
2023-02-25T08:32:44.290Z,96480.47
2023-02-25T08:35:11.143Z,96491.13
2023-02-25T08:37:37.855Z,96489.41
2023-02-25T08:40:10.181Z,96480.91
2023-02-25T08:42:37.729Z,96489.34
2023-02-25T08:45:05.246Z,96487.72
2023-02-25T08:47:32.023Z,96502.47
2023-02-25T08:49:58.740Z,96497.31
2023-02-25T08:52:25.466Z,96489.94
2023-02-25T08:54:52.468Z,96489.34
2023-02-25T08:57:19.160Z,96501.41
2023-02-25T08:59:45.864Z,96500.13
2023-02-25T09:02:15.171Z,96495.22
2023-02-25T09:04:42.328Z,96505.28
2023-02-25T09:07:09.234Z,96496.25
2023-02-25T09:09:35.964Z,96504.91
2023-02-25T09:12:05.151Z,96503.00
2023-02-25T09:14:33.469Z,96503.38
2023-02-25T09:17:02.433Z,96509.34
2023-02-25T09:19:29.777Z,96506.75
2023-02-25T09:21:56.485Z,96512.06
2023-02-25T09:24:24.022Z,96506.53
2023-02-25T09:26:50.818Z,96507.81
2023-02-25T09:29:17.592Z,96506.28
2023-02-25T09:31:44.569Z,96500.28
2023-02-25T09:34:15.116Z,96499.16
2023-02-25T09:36:41.915Z,96498.78
2023-02-25T09:39:10.036Z,96494.22
2023-02-25T09:41:55.490Z,96506.53
2023-02-25T09:44:39.777Z,96505.81
2023-02-25T09:47:36.335Z,96506.28
2023-02-25T09:50:21.396Z,96511.75
2023-02-25T09:52:54.067Z,96512.00
2023-02-25T09:55:38.362Z,96506.84
2023-02-25T09:58:30.383Z,96513.53
2023-02-25T10:01:12.012Z,96507.13
2023-02-25T10:04:09.383Z,96505.94
2023-02-25T10:06:43.728Z,96503.25
2023-02-25T10:09:51.417Z,96505.72
2023-02-25T10:12:41.816Z,96503.00
2023-02-25T10:15:38.679Z,96502.88
2023-02-25T10:18:41.733Z,96495.16
2023-02-25T10:21:55.751Z,96492.47
2023-02-25T10:24:48.436Z,96493.09
2023-02-25T10:27:27.403Z,96487.84
2023-02-25T10:30:06.665Z,96486.78
2023-02-25T10:32:37.582Z,96477.31
2023-02-25T10:35:28.966Z,96472.03
2023-02-25T10:37:56.017Z,96484.44
2023-02-25T10:40:29.034Z,96477.28
2023-02-25T10:43:06.911Z,96465.47
2023-02-25T10:45:34.070Z,96459.84
2023-02-25T10:48:08.428Z,96459.59
2023-02-25T10:50:45.395Z,96460.56
2023-02-25T10:53:16.880Z,96468.03
2023-02-25T10:55:43.704Z,96457.38
2023-02-25T10:58:27.822Z,96461.47
2023-02-25T11:01:20.150Z,96469.69
2023-02-25T11:04:00.596Z,96457.63
2023-02-25T11:06:40.555Z,96465.22
2023-02-25T11:09:35.177Z,96459.59
2023-02-25T11:12:07.815Z,96460.25
2023-02-25T11:14:38.273Z,96449.06
2023-02-25T11:17:20.176Z,96437.91
2023-02-25T11:19:59.950Z,96433.53
2023-02-25T11:22:43.012Z,96435.94
2023-02-25T11:25:43.460Z,96428.88
2023-02-25T11:28:31.141Z,96428.97
2023-02-25T11:31:23.511Z,96423.59
2023-02-25T11:34:01.291Z,96425.94
2023-02-25T11:36:35.360Z,96431.19
2023-02-25T11:39:24.332Z,96462.84
2023-02-25T11:41:57.308Z,96458.31
2023-02-25T11:44:40.034Z,96444.81
2023-02-25T11:47:31.458Z,96456.97
2023-02-25T11:50:13.301Z,96446.78
2023-02-25T11:53:15.774Z,96445.78
2023-02-25T11:56:20.071Z,96428.66
2023-02-25T11:59:22.278Z,96433.19
2023-02-25T12:02:27.148Z,96434.81
2023-02-25T12:05:16.632Z,96450.16
2023-02-25T12:08:24.021Z,96444.47
2023-02-25T12:11:40.600Z,96452.19
2023-02-25T12:14:50.790Z,96448.72
2023-02-25T12:17:52.021Z,96445.16
2023-02-25T12:20:50.243Z,96437.19
2023-02-25T12:24:04.070Z,96440.88
2023-02-25T12:26:50.743Z,96440.31
2023-02-25T12:29:53.091Z,96434.81
2023-02-25T12:32:43.874Z,96432.16
2023-02-25T12:36:03.735Z,96433.47
2023-02-25T12:38:50.678Z,96422.84
2023-02-25T12:41:29.438Z,96424.38
2023-02-25T12:44:39.146Z,96416.44
2023-02-25T12:47:25.182Z,96418.59
2023-02-25T12:50:44.995Z,96426.00
2023-02-25T12:53:55.168Z,96423.63
2023-02-25T12:56:47.928Z,96412.00
2023-02-25T12:59:33.318Z,96422.66
2023-02-25T13:02:28.665Z,96440.13
2023-02-25T13:05:25.682Z,96428.28
2023-02-25T13:08:18.755Z,96435.41
2023-02-25T13:11:07.224Z,96435.31
2023-02-25T13:13:58.625Z,96443.22
2023-02-25T13:17:03.636Z,96428.78
2023-02-25T13:19:54.362Z,96423.25
2023-02-25T13:23:01.790Z,96433.19
2023-02-25T13:26:03.975Z,96432.81
2023-02-25T13:29:15.883Z,96455.06
2023-02-25T13:32:19.537Z,96481.69
2023-02-25T13:35:21.604Z,96480.31
2023-02-25T13:38:23.607Z,96487.84
2023-02-25T13:41:06.079Z,96485.25
2023-02-25T13:44:18.678Z,96493.84
2023-02-25T13:47:32.542Z,96492.34
2023-02-25T13:51:01.891Z,96493.00
2023-02-25T13:53:58.963Z,96492.50
2023-02-25T13:57:13.572Z,96499.69
2023-02-25T14:00:02.119Z,96505.81
2023-02-25T14:03:06.169Z,96504.88
2023-02-25T14:06:00.167Z,96502.09
2023-02-25T14:09:06.508Z,96504.66
2023-02-25T14:12:44.328Z,96509.75
2023-02-25T14:16:04.765Z,96520.69
2023-02-25T14:19:17.969Z,96510.59
2023-02-25T14:22:27.023Z,96525.75
2023-02-25T14:25:05.008Z,96523.38
2023-02-25T14:28:05.776Z,96520.53
2023-02-25T14:31:07.864Z,96499.47
2023-02-25T14:33:45.010Z,96487.66
2023-02-25T14:36:31.853Z,96485.91
2023-02-25T14:39:36.192Z,96496.72
2023-02-25T14:42:49.096Z,96504.53
2023-02-25T14:45:28.430Z,96507.13
2023-02-25T14:48:14.090Z,96501.91
2023-02-25T14:51:22.062Z,96509.72
2023-02-25T14:54:29.600Z,96513.25
2023-02-25T14:57:36.515Z,96513.78
2023-02-25T15:00:49.967Z,96523.50
2023-02-25T15:03:27.975Z,96530.06
2023-02-25T15:06:22.338Z,96534.28
2023-02-25T15:09:18.773Z,96542.50
2023-02-25T15:12:16.706Z,96542.88
2023-02-25T15:15:04.773Z,96550.94
2023-02-25T15:17:56.426Z,96549.09
2023-02-25T15:20:40.638Z,96548.72
2023-02-25T15:23:19.653Z,96542.94
2023-02-25T15:26:21.173Z,96539.28
2023-02-25T15:28:51.374Z,96542.22
2023-02-25T15:31:28.374Z,96557.31
2023-02-25T15:34:32.752Z,96555.91
2023-02-25T15:37:38.686Z,96552.84
2023-02-25T15:40:14.621Z,96548.53
2023-02-25T15:42:54.328Z,96551.81
2023-02-25T15:45:27.492Z,96559.41
2023-02-25T15:48:15.072Z,96564.84
2023-02-25T15:50:41.764Z,96567.31
2023-02-25T15:53:20.978Z,96571.56
2023-02-25T15:56:04.976Z,96575.00
2023-02-25T15:58:31.721Z,96584.19
2023-02-25T16:01:00.033Z,96580.41
2023-02-25T16:03:34.692Z,96575.09
2023-02-25T16:06:17.364Z,96593.81
2023-02-25T16:09:06.437Z,96590.97
2023-02-25T16:11:49.310Z,96594.53
2023-02-25T16:14:28.187Z,96597.22
2023-02-25T16:17:16.473Z,96594.16
2023-02-25T16:19:47.883Z,96598.78
2023-02-25T16:22:28.498Z,96607.63
2023-02-25T16:24:58.897Z,96606.81
2023-02-25T16:28:08.715Z,96608.44
2023-02-25T16:30:45.034Z,96608.22
2023-02-25T16:33:43.425Z,96614.41
2023-02-25T16:37:06.185Z,96623.97
2023-02-25T16:39:33.150Z,96629.00
2023-02-25T16:42:13.928Z,96641.25
2023-02-25T16:44:45.505Z,96633.13
2023-02-25T16:47:34.566Z,96639.81
2023-02-25T16:50:12.507Z,96650.47
2023-02-25T16:52:47.814Z,96651.06
2023-02-25T16:55:22.800Z,96659.31
2023-02-25T16:58:19.185Z,96649.72
2023-02-25T17:00:57.973Z,96655.34
2023-02-25T17:03:33.809Z,96661.91
2023-02-25T17:06:20.620Z,96668.34
2023-02-25T17:08:50.200Z,96672.97
2023-02-25T17:11:19.733Z,96675.19
2023-02-25T17:13:50.309Z,96680.72
2023-02-25T17:16:32.082Z,96679.44
2023-02-25T17:19:07.036Z,96682.50
2023-02-25T17:21:36.885Z,96690.66
2023-02-25T17:24:12.246Z,96686.91
2023-02-25T17:26:46.120Z,96711.41
2023-02-25T17:29:16.356Z,96700.78
2023-02-25T17:31:48.178Z,96715.63
2023-02-25T17:34:34.944Z,96728.72
2023-02-25T17:37:09.040Z,96713.72
2023-02-25T17:39:36.169Z,96730.94
2023-02-25T17:42:03.043Z,96731.28
2023-02-25T17:44:39.003Z,96731.75
2023-02-25T17:47:10.067Z,96744.72
2023-02-25T17:49:38.155Z,96745.75
2023-02-25T17:52:14.995Z,96739.69
2023-02-25T17:54:48.209Z,96747.38
2023-02-25T17:57:21.726Z,96749.94
2023-02-25T18:00:04.321Z,96749.78
2023-02-25T18:02:40.930Z,96748.88
2023-02-25T18:05:13.186Z,96744.28
2023-02-25T18:07:47.348Z,96750.97
2023-02-25T18:10:43.883Z,96759.31
2023-02-25T18:13:23.482Z,96761.78
2023-02-25T18:16:39.174Z,96771.94
2023-02-25T18:19:45.604Z,96779.47
2023-02-25T18:22:30.628Z,96786.03
2023-02-25T18:25:02.021Z,96789.09
2023-02-25T18:27:34.034Z,96793.19
2023-02-25T18:30:18.774Z,96798.22
2023-02-25T18:32:46.978Z,96805.00
2023-02-25T18:35:14.785Z,96802.34
2023-02-25T18:37:44.248Z,96807.31
2023-02-25T18:40:29.473Z,96814.72
2023-02-25T18:42:58.924Z,96818.84
2023-02-25T18:45:29.223Z,96814.44
2023-02-25T18:47:56.832Z,96809.41
2023-02-25T18:50:25.439Z,96817.94
2023-02-25T18:52:52.160Z,96821.31
2023-02-25T18:55:24.323Z,96825.63
2023-02-25T18:57:51.840Z,96821.59
2023-02-25T19:00:22.847Z,96833.59
2023-02-25T19:03:00.867Z,96819.22
2023-02-25T19:05:28.462Z,96822.72
2023-02-25T19:07:56.202Z,96822.88
2023-02-25T19:10:27.855Z,96816.38
2023-02-25T19:13:07.843Z,96820.78
2023-02-25T19:15:35.588Z,96821.78
2023-02-25T19:18:02.318Z,96828.72
2023-02-25T19:20:29.043Z,96832.94
2023-02-25T19:22:55.902Z,96832.03
2023-02-25T19:25:33.833Z,96838.88
2023-02-25T19:28:01.361Z,96845.03
2023-02-25T19:30:34.743Z,96834.84
2023-02-25T19:33:04.906Z,96845.84
2023-02-25T19:35:35.565Z,96845.75
2023-02-25T19:38:03.346Z,96847.44
2023-02-25T19:40:31.055Z,96845.59
2023-02-25T19:42:58.654Z,96849.22
2023-02-25T19:45:27.001Z,96853.63
2023-02-25T19:47:55.190Z,96866.44
2023-02-25T19:50:24.775Z,96869.84
2023-02-25T19:52:53.677Z,96862.25
2023-02-25T19:55:22.533Z,96876.81
2023-02-25T19:57:49.804Z,96869.19
2023-02-25T20:00:23.642Z,96867.66
2023-02-25T20:02:52.950Z,96874.50
2023-02-25T20:05:21.625Z,96888.34
2023-02-25T20:07:48.375Z,96882.38
2023-02-25T20:10:16.148Z,96887.50
2023-02-25T20:12:47.154Z,96890.91
2023-02-25T20:15:15.672Z,96905.28
2023-02-25T20:17:45.132Z,96906.34
2023-02-25T20:20:14.147Z,96905.06
2023-02-25T20:22:41.716Z,96909.69
2023-02-25T20:25:10.783Z,96906.56
2023-02-25T20:27:39.622Z,96914.44
2023-02-25T20:30:08.169Z,96918.00
2023-02-25T20:32:35.310Z,96926.59
2023-02-25T20:35:02.580Z,96929.22
2023-02-25T20:37:37.008Z,96927.66
2023-02-25T20:40:08.247Z,96929.59
2023-02-25T20:42:35.554Z,96936.53
2023-02-25T20:45:03.554Z,96939.00
2023-02-25T20:47:37.449Z,96942.31
2023-02-25T20:50:07.514Z,96946.09
2023-02-25T20:52:34.447Z,96947.94
2023-02-25T20:55:01.220Z,96950.66
2023-02-25T20:57:28.096Z,96957.69
2023-02-25T20:59:55.064Z,96955.97
2023-02-25T21:02:22.462Z,96958.53
2023-02-25T21:04:50.386Z,96965.38
2023-02-25T21:07:17.134Z,96967.13
2023-02-25T21:09:43.912Z,96974.72
2023-02-25T21:12:10.950Z,96968.78
2023-02-25T21:14:37.752Z,96976.38
2023-02-25T21:17:09.184Z,96984.88
2023-02-25T21:19:38.373Z,96980.69
2023-02-25T21:22:06.692Z,96985.81
2023-02-25T21:24:34.472Z,96988.44
2023-02-25T21:27:02.307Z,96975.81
2023-02-25T21:29:29.348Z,96997.88
2023-02-25T21:31:56.595Z,96988.38
2023-02-25T21:34:23.385Z,96990.75
2023-02-25T21:36:50.159Z,96994.97
2023-02-25T21:39:16.956Z,96993.91
2023-02-25T21:41:45.209Z,96988.78
2023-02-25T21:44:13.369Z,96980.50
2023-02-25T21:46:41.485Z,96990.00
2023-02-25T21:49:10.422Z,96984.97
2023-02-25T21:51:37.395Z,96998.88
2023-02-25T21:54:04.324Z,96992.06
2023-02-25T21:56:31.470Z,96993.78
2023-02-25T21:59:02.197Z,96998.09
2023-02-25T22:01:36.474Z,96994.72
2023-02-25T22:04:04.847Z,96998.19
2023-02-25T22:06:32.321Z,97001.47
2023-02-25T22:09:01.202Z,97011.72
2023-02-25T22:11:31.406Z,97009.13
2023-02-25T22:14:01.078Z,97001.34
2023-02-25T22:16:28.639Z,97001.75
2023-02-25T22:18:56.586Z,97003.66
2023-02-25T22:21:27.737Z,96997.91
2023-02-25T22:23:58.259Z,97000.75
2023-02-25T22:26:31.476Z,97001.00
2023-02-25T22:29:02.582Z,97002.81
2023-02-25T22:31:30.062Z,97005.44
2023-02-25T22:33:58.053Z,96999.47
2023-02-25T22:36:25.673Z,96999.66
2023-02-25T22:38:53.714Z,96994.78
2023-02-25T22:41:28.193Z,97002.53
2023-02-25T22:43:57.630Z,97005.31
2023-02-25T22:46:37.020Z,97010.69
2023-02-25T22:49:05.890Z,97014.25
2023-02-25T22:51:41.936Z,97001.59
2023-02-25T22:54:11.511Z,97013.72
2023-02-25T22:56:39.052Z,97010.50
2023-02-25T22:59:07.123Z,97014.97
2023-02-25T23:01:34.081Z,97011.78
2023-02-25T23:04:01.776Z,97011.78
2023-02-25T23:06:42.918Z,97023.75
2023-02-25T23:09:11.530Z,97019.53
2023-02-25T23:11:41.443Z,97017.06
2023-02-25T23:14:08.254Z,97032.59
2023-02-25T23:16:43.125Z,97031.84
2023-02-25T23:19:15.679Z,97023.41
2023-02-25T23:21:43.108Z,97035.44
2023-02-25T23:24:16.182Z,97039.81
2023-02-25T23:26:45.004Z,97031.38
2023-02-25T23:29:12.919Z,97036.50
2023-02-25T23:31:46.755Z,97042.69
2023-02-25T23:34:22.662Z,97043.75
2023-02-25T23:36:49.511Z,97052.28
2023-02-25T23:39:16.536Z,97049.00
2023-02-25T23:41:43.563Z,97050.63
2023-02-25T23:44:11.974Z,97046.44
2023-02-25T23:46:39.445Z,97057.56
2023-02-25T23:49:07.359Z,97057.56
2023-02-25T23:51:35.854Z,97047.34
2023-02-25T23:54:05.864Z,97061.84
2023-02-25T23:56:34.234Z,97059.22
2023-02-25T23:59:01.741Z,97058.31
